Time;durP1;ratioP1;P1;durP2;ratioP2;P2;SDS_P1;SDS_P2;PMS_P1;PMS_P2;Temp;Humidity;BMP_temperature;BMP_pressure;BME280_temperature;BME280_humidity;BME280_pressure;Samples;Min_cycle;Max_cycle;Signal;HPM_P1;HPM_P2
2021/12/26 00:00:59;;;;;;;7.13;5.90;;;;;;;;;;5030678;28;20031;-74
2021/12/26 00:03:26;;;;;;;8.05;6.22;;;;;;;;;;5030827;28;20029;-74
2021/12/26 00:05:55;;;;;;;7.85;5.78;;;;;;;;;;5030440;28;20035;-74
2021/12/26 00:08:21;;;;;;;8.90;6.22;;;;;;;;;;5030958;28;20025;-74
2021/12/26 00:10:48;;;;;;;8.93;5.57;;;;;;;;;;5030383;28;20022;-75
2021/12/26 00:13:15;;;;;;;8.15;5.82;;;;;;;;;;5030602;28;20083;-74
2021/12/26 00:15:40;;;;;;;7.60;5.72;;;;;;;;;;5030119;28;20048;-74
2021/12/26 00:18:07;;;;;;;8.32;6.47;;;;;;;;;;5030538;28;20026;-74
2021/12/26 00:20:32;;;;;;;7.70;5.70;;;;;;;;;;5030583;28;20080;-74
2021/12/26 00:22:58;;;;;;;7.78;6.18;;;;;;;;;;5030699;28;20714;-74
2021/12/26 00:25:23;;;;;;;7.90;5.95;;;;;;;;;;5029836;28;20029;-74
2021/12/26 00:27:49;;;;;;;8.32;5.93;;;;;;;;;;5030559;28;20030;-73
2021/12/26 00:30:18;;;;;;;6.90;5.55;;;;;;;;;;5030291;28;20025;-74
2021/12/26 00:32:44;;;;;;;9.80;7.40;;;;;;;;;;5030140;28;20495;-74
2021/12/26 00:35:11;;;;;;;8.73;6.13;;;;;;;;;;5029577;28;20048;-73
2021/12/26 00:37:37;;;;;;;8.80;6.47;;;;;;;;;;5030118;28;20025;-73
2021/12/26 00:40:04;;;;;;;7.65;6.22;;;;;;;;;;5029653;28;20051;-74
2021/12/26 00:42:29;;;;;;;8.95;6.13;;;;;;;;;;5030044;28;20509;-74
2021/12/26 00:44:54;;;;;;;7.60;6.18;;;;;;;;;;5029570;28;20033;-73
2021/12/26 00:47:20;;;;;;;8.43;6.43;;;;;;;;;;5030010;28;20107;-75
2021/12/26 00:49:45;;;;;;;8.30;6.43;;;;;;;;;;5029932;28;20041;-74
2021/12/26 00:52:10;;;;;;;9.57;6.80;;;;;;;;;;5029435;28;20479;-74
2021/12/26 00:54:36;;;;;;;9.05;6.72;;;;;;;;;;5029349;28;20561;-74
2021/12/26 00:57:04;;;;;;;8.10;6.20;;;;;;;;;;5029845;28;20083;-73
2021/12/26 00:59:29;;;;;;;9.30;6.47;;;;;;;;;;5029654;28;20026;-72
2021/12/26 01:01:56;;;;;;;9.18;6.88;;;;;;;;;;5029856;28;20033;-73
2021/12/26 01:04:22;;;;;;;8.98;6.63;;;;;;;;;;5029729;28;20091;-72
2021/12/26 01:06:49;;;;;;;8.10;6.38;;;;;;;;;;5029401;28;20021;-75
2021/12/26 01:09:21;;;;;;;9.63;7.00;;;;;;;;;;5029658;28;20391;-74
2021/12/26 01:11:51;;;;;;;8.70;6.88;;;;;;;;;;5029533;28;20029;-74
2021/12/26 01:14:24;;;;;;;10.10;6.80;;;;;;;;;;5028279;28;20037;-73
2021/12/26 01:16:50;;;;;;;11.20;7.00;;;;;;;;;;5029380;28;20022;-74
2021/12/26 01:19:18;;;;;;;10.32;7.00;;;;;;;;;;5029557;28;20032;-74
2021/12/26 01:21:44;;;;;;;10.38;6.97;;;;;;;;;;5029078;28;20052;-74
2021/12/26 01:24:13;;;;;;;11.45;7.18;;;;;;;;;;5029344;28;20034;-74
2021/12/26 01:26:38;;;;;;;8.68;6.22;;;;;;;;;;5029431;28;20022;-74
2021/12/26 01:29:05;;;;;;;9.75;6.95;;;;;;;;;;5029436;28;20037;-72
2021/12/26 01:31:31;;;;;;;10.68;7.28;;;;;;;;;;5029632;28;20057;-74
2021/12/26 01:34:01;;;;;;;8.55;6.78;;;;;;;;;;5029184;28;20483;-74
2021/12/26 01:36:27;;;;;;;8.35;6.22;;;;;;;;;;5028963;28;20075;-75
2021/12/26 01:38:56;;;;;;;10.00;7.15;;;;;;;;;;5028099;28;20493;-73
2021/12/26 01:41:21;;;;;;;9.32;6.80;;;;;;;;;;5029082;28;20026;-73
2021/12/26 01:43:48;;;;;;;10.73;6.88;;;;;;;;;;5029362;28;20025;-74
2021/12/26 01:46:15;;;;;;;9.65;6.97;;;;;;;;;;5028792;28;20049;-74
2021/12/26 01:48:40;;;;;;;8.63;6.45;;;;;;;;;;5029182;28;20021;-74
2021/12/26 01:51:06;;;;;;;8.98;6.43;;;;;;;;;;5029137;28;20025;-74
2021/12/26 01:53:39;;;;;;;8.73;6.45;;;;;;;;;;5029319;28;20025;-75
2021/12/26 01:56:07;;;;;;;;;;;;;;;;;;5029435;28;20021;-74
2021/12/26 01:58:35;;;;;;;8.55;6.30;;;;;;;;;;5029362;28;19913;-73
2021/12/26 02:01:06;;;;;;;10.05;7.47;;;;;;;;;;5027740;28;20033;-73
2021/12/26 02:03:32;;;;;;;9.27;6.53;;;;;;;;;;5031471;28;20032;-74
2021/12/26 02:05:57;;;;;;;8.82;6.80;;;;;;;;;;5032566;28;20022;-74
2021/12/26 02:08:23;;;;;;;10.20;6.88;;;;;;;;;;5033036;28;20030;-73
2021/12/26 02:10:49;;;;;;;9.55;7.03;;;;;;;;;;5032904;28;20022;-74
2021/12/26 02:13:15;;;;;;;9.23;6.78;;;;;;;;;;5032952;28;20048;-74
2021/12/26 02:15:40;;;;;;;11.40;7.72;;;;;;;;;;5032348;28;20029;-73
2021/12/26 02:18:07;;;;;;;10.02;7.15;;;;;;;;;;5032745;28;20051;-74
2021/12/26 02:23:09;;;;;;;11.10;7.63;;;;;;;;;;5032750;28;20041;-74
2021/12/26 02:28:08;;;;;;;9.02;7.05;;;;;;;;;;5032594;28;20165;-74
2021/12/26 02:30:33;;;;;;;9.75;6.68;;;;;;;;;;5031081;28;20028;-73
2021/12/26 02:33:03;;;;;;;9.90;7.40;;;;;;;;;;5032529;28;20034;-75
2021/12/26 02:35:29;;;;;;;10.70;7.30;;;;;;;;;;5032159;28;20048;-74
2021/12/26 02:37:54;;;;;;;9.57;6.63;;;;;;;;;;5032417;28;20072;-74
2021/12/26 02:40:19;;;;;;;12.95;7.50;;;;;;;;;;5032317;28;20085;-74
2021/12/26 02:42:45;;;;;;;11.43;7.53;;;;;;;;;;5030722;28;20032;-74
2021/12/26 02:45:10;;;;;;;12.77;8.30;;;;;;;;;;5032130;28;20025;-74
2021/12/26 02:47:39;;;;;;;14.60;8.02;;;;;;;;;;5032546;28;20064;-74
2021/12/26 02:50:18;;;;;;;14.32;8.10;;;;;;;;;;5032234;28;20056;-73
2021/12/26 02:52:44;;;;;;;13.00;7.65;;;;;;;;;;5032159;28;20022;-74
2021/12/26 02:55:11;;;;;;;14.90;9.18;;;;;;;;;;5032430;28;20052;-74
2021/12/26 02:57:38;;;;;;;12.38;7.63;;;;;;;;;;5031934;28;20431;-74
2021/12/26 03:00:12;;;;;;;12.38;7.95;;;;;;;;;;5032343;28;20026;-74
2021/12/26 03:02:43;;;;;;;13.75;8.00;;;;;;;;;;5031828;28;20033;-74
2021/12/26 03:05:08;;;;;;;12.35;7.53;;;;;;;;;;5030311;28;20025;-74
2021/12/26 03:07:34;;;;;;;12.60;8.00;;;;;;;;;;5031828;28;20087;-74
2021/12/26 03:10:01;;;;;;;13.10;8.63;;;;;;;;;;5031672;28;20082;-73
2021/12/26 03:12:29;;;;;;;12.07;7.40;;;;;;;;;;5031694;28;20029;-74
2021/12/26 03:14:54;;;;;;;12.20;7.70;;;;;;;;;;5031161;28;20025;-73
2021/12/26 03:17:20;;;;;;;12.38;7.75;;;;;;;;;;5031400;28;20065;-74
2021/12/26 03:19:46;;;;;;;13.13;8.27;;;;;;;;;;5031822;28;20030;-73
2021/12/26 03:22:12;;;;;;;13.70;8.40;;;;;;;;;;5031321;28;20033;-73
2021/12/26 03:24:38;;;;;;;10.68;7.03;;;;;;;;;;5031151;28;20617;-73
2021/12/26 03:27:05;;;;;;;12.20;7.65;;;;;;;;;;5030030;28;20079;-73
2021/12/26 03:29:31;;;;;;;12.55;8.05;;;;;;;;;;5031442;28;20495;-74
2021/12/26 03:31:57;;;;;;;11.07;7.68;;;;;;;;;;5031251;28;20388;-74
2021/12/26 03:34:22;;;;;;;11.02;7.28;;;;;;;;;;5031114;28;20037;-73
2021/12/26 03:36:51;;;;;;;11.88;7.85;;;;;;;;;;5051588;22;20053;-69
2021/12/26 03:39:18;;;;;;;10.48;7.32;;;;;;;;;;5031318;28;20029;-70
2021/12/26 03:41:44;;;;;;;10.60;7.65;;;;;;;;;;5030947;28;20423;-69
2021/12/26 03:44:10;;;;;;;12.73;7.75;;;;;;;;;;5031073;28;20025;-71
2021/12/26 03:46:35;;;;;;;11.02;7.15;;;;;;;;;;5030935;28;20116;-70
2021/12/26 03:49:04;;;;;;;11.98;7.82;;;;;;;;;;5031214;28;20032;-70
2021/12/26 03:51:30;;;;;;;12.05;7.55;;;;;;;;;;5031096;28;20437;-70
2021/12/26 03:53:55;;;;;;;12.25;7.35;;;;;;;;;;5031055;28;20025;-70
2021/12/26 03:56:21;;;;;;;13.50;7.93;;;;;;;;;;5030977;28;20032;-70
2021/12/26 03:58:46;;;;;;;13.35;8.73;;;;;;;;;;5031048;28;20459;-70
2021/12/26 04:01:12;;;;;;;12.40;8.32;;;;;;;;;;5030907;28;20033;-70
2021/12/26 04:03:37;;;;;;;13.30;7.68;;;;;;;;;;5030706;28;20025;-70
2021/12/26 04:06:03;;;;;;;14.10;8.63;;;;;;;;;;5030559;28;20061;-70
2021/12/26 04:08:28;;;;;;;12.85;8.18;;;;;;;;;;5030731;28;20027;-70
2021/12/26 04:10:53;;;;;;;14.48;8.38;;;;;;;;;;5030940;28;20032;-70
2021/12/26 04:13:19;;;;;;;11.50;7.75;;;;;;;;;;5030543;28;20445;-70
2021/12/26 04:15:44;;;;;;;12.80;8.18;;;;;;;;;;5030374;28;20021;-70
2021/12/26 04:18:10;;;;;;;11.23;7.60;;;;;;;;;;5030684;28;20025;-70
2021/12/26 04:20:35;;;;;;;11.90;8.23;;;;;;;;;;5030406;28;20025;-70
2021/12/26 04:23:01;;;;;;;12.07;7.68;;;;;;;;;;5030375;28;20116;-69
2021/12/26 04:25:27;;;;;;;15.27;8.02;;;;;;;;;;5029613;28;20111;-70
2021/12/26 04:27:54;;;;;;;11.65;7.55;;;;;;;;;;5030386;28;20028;-70
2021/12/26 04:30:20;;;;;;;11.95;7.40;;;;;;;;;;5030334;28;20034;-70
2021/12/26 04:32:46;;;;;;;12.98;8.32;;;;;;;;;;5030216;28;20025;-69
2021/12/26 04:35:12;;;;;;;12.63;7.93;;;;;;;;;;5029862;28;20056;-69
2021/12/26 04:37:37;;;;;;;11.68;7.75;;;;;;;;;;5030333;28;20526;-69
2021/12/26 04:40:09;;;;;;;12.05;7.30;;;;;;;;;;5030190;28;20031;-69
2021/12/26 04:42:37;;;;;;;11.10;6.97;;;;;;;;;;5030131;28;20018;-69
2021/12/26 04:45:05;;;;;;;12.68;7.78;;;;;;;;;;5030376;28;20508;-69
2021/12/26 04:47:30;;;;;;;12.55;7.55;;;;;;;;;;5030147;28;20017;-69
2021/12/26 04:49:56;;;;;;;11.32;7.90;;;;;;;;;;5029894;28;20029;-70
2021/12/26 04:52:21;;;;;;;12.10;7.93;;;;;;;;;;5029873;28;20026;-69
2021/12/26 04:54:47;;;;;;;11.82;8.10;;;;;;;;;;5029652;28;20029;-69
2021/12/26 04:57:12;;;;;;;12.55;8.15;;;;;;;;;;5029965;28;20036;-70
2021/12/26 04:59:37;;;;;;;11.93;7.57;;;;;;;;;;5029788;28;20501;-69
2021/12/26 05:02:03;;;;;;;11.05;7.18;;;;;;;;;;5029556;28;20037;-70
2021/12/26 05:04:28;;;;;;;11.80;7.68;;;;;;;;;;5029239;28;20459;-70
2021/12/26 05:06:54;;;;;;;12.70;8.00;;;;;;;;;;5029643;28;20025;-70
2021/12/26 05:09:19;;;;;;;12.10;7.65;;;;;;;;;;5029608;28;20041;-69
2021/12/26 05:11:44;;;;;;;12.75;8.05;;;;;;;;;;5029761;28;20079;-69
2021/12/26 05:14:10;;;;;;;13.40;8.25;;;;;;;;;;5029365;28;20025;-69
2021/12/26 05:16:35;;;;;;;11.25;7.60;;;;;;;;;;5029451;28;20494;-70
2021/12/26 05:19:00;;;;;;;12.65;8.20;;;;;;;;;;5029333;28;20036;-69
2021/12/26 05:21:26;;;;;;;10.45;7.50;;;;;;;;;;5029481;28;20064;-69
2021/12/26 05:23:51;;;;;;;12.02;7.57;;;;;;;;;;5028180;28;20032;-69
2021/12/26 05:26:17;;;;;;;13.70;8.30;;;;;;;;;;5029492;28;20021;-70
2021/12/26 05:28:42;;;;;;;12.35;7.82;;;;;;;;;;5029403;28;20036;-69
2021/12/26 05:31:07;;;;;;;13.70;7.55;;;;;;;;;;5029823;28;20018;-70
2021/12/26 05:33:33;;;;;;;11.55;7.57;;;;;;;;;;5029167;28;20029;-69
2021/12/26 05:35:59;;;;;;;13.05;7.85;;;;;;;;;;5029151;28;20096;-69
2021/12/26 05:38:27;;;;;;;12.63;7.53;;;;;;;;;;5033094;28;20025;-69
2021/12/26 05:40:52;;;;;;;13.50;8.52;;;;;;;;;;5033615;28;20264;-69
2021/12/26 05:43:17;;;;;;;12.95;7.82;;;;;;;;;;5033608;28;20048;-69
2021/12/26 05:45:43;;;;;;;11.15;7.47;;;;;;;;;;5033215;28;20060;-69
2021/12/26 05:48:08;;;;;;;14.38;8.65;;;;;;;;;;5033156;28;20042;-69
2021/12/26 05:50:33;;;;;;;15.60;9.30;;;;;;;;;;5033560;28;20022;-69
2021/12/26 05:52:58;;;;;;;15.20;10.23;;;;;;;;;;5033123;28;20033;-69
2021/12/26 05:55:24;;;;;;;14.80;9.75;;;;;;;;;;5032976;28;20451;-69
2021/12/26 05:57:49;;;;;;;15.85;9.45;;;;;;;;;;5033361;28;20378;-69
2021/12/26 06:00:18;;;;;;;13.07;8.57;;;;;;;;;;5033089;28;20480;-70
2021/12/26 06:02:43;;;;;;;13.50;8.30;;;;;;;;;;5032864;28;20040;-70
2021/12/26 06:05:09;;;;;;;14.57;8.80;;;;;;;;;;5032611;28;20030;-70
2021/12/26 06:07:34;;;;;;;13.43;8.40;;;;;;;;;;5032997;28;20026;-70
2021/12/26 06:09:59;;;;;;;12.95;7.97;;;;;;;;;;5032761;28;20112;-70
2021/12/26 06:12:25;;;;;;;13.63;8.00;;;;;;;;;;5028393;28;20101;-70
2021/12/26 06:14:50;;;;;;;13.02;8.35;;;;;;;;;;5029419;28;20437;-70
2021/12/26 06:17:16;;;;;;;13.45;7.38;;;;;;;;;;5032783;28;20030;-70
2021/12/26 06:19:41;;;;;;;14.07;8.77;;;;;;;;;;5032677;28;20061;-70
2021/12/26 06:22:07;;;;;;;16.05;8.50;;;;;;;;;;5032853;28;20025;-70
2021/12/26 06:24:33;;;;;;;14.27;8.05;;;;;;;;;;5032409;28;20110;-70
2021/12/26 06:26:58;;;;;;;13.07;8.30;;;;;;;;;;5035088;28;20110;-70
2021/12/26 06:29:23;;;;;;;14.95;8.80;;;;;;;;;;5052470;28;20390;-70
2021/12/26 06:31:49;;;;;;;13.15;8.13;;;;;;;;;;5052553;28;20035;-70
2021/12/26 06:34:14;;;;;;;12.93;7.88;;;;;;;;;;5052202;28;20025;-70
2021/12/26 06:36:39;;;;;;;12.88;7.70;;;;;;;;;;5052597;28;20056;-70
2021/12/26 06:39:06;;;;;;;14.60;7.65;;;;;;;;;;5052683;28;20101;-70
2021/12/26 06:41:33;;;;;;;17.17;9.82;;;;;;;;;;5052689;28;20445;-70
2021/12/26 06:43:58;;;;;;;11.82;7.82;;;;;;;;;;5052007;28;20467;-70
2021/12/26 06:46:23;;;;;;;12.55;7.70;;;;;;;;;;5052177;28;20044;-70
2021/12/26 06:48:49;;;;;;;14.70;8.30;;;;;;;;;;5051457;28;20029;-70
2021/12/26 06:51:15;;;;;;;12.73;7.80;;;;;;;;;;5052268;28;20043;-70
2021/12/26 06:53:40;;;;;;;12.85;7.88;;;;;;;;;;5051901;28;20522;-70
2021/12/26 06:56:06;;;;;;;12.00;7.25;;;;;;;;;;5049756;28;20060;-70
2021/12/26 06:58:31;;;;;;;14.27;8.15;;;;;;;;;;5031880;28;20146;-70
2021/12/26 07:00:57;;;;;;;15.07;8.10;;;;;;;;;;5031801;28;20057;-70
2021/12/26 07:03:22;;;;;;;13.00;7.90;;;;;;;;;;5031898;28;20112;-70
2021/12/26 07:05:47;;;;;;;12.45;7.57;;;;;;;;;;5031815;28;20021;-70
2021/12/26 07:08:13;;;;;;;14.50;8.05;;;;;;;;;;5032502;28;20056;-70
2021/12/26 07:10:38;;;;;;;12.73;7.72;;;;;;;;;;5032610;28;20025;-70
2021/12/26 07:13:03;;;;;;;11.13;7.00;;;;;;;;;;5032430;28;20029;-70
2021/12/26 07:15:29;;;;;;;13.48;7.65;;;;;;;;;;5031756;28;20052;-69
2021/12/26 07:17:54;;;;;;;14.63;8.38;;;;;;;;;;5031536;28;20033;-70
2021/12/26 07:20:20;;;;;;;13.45;8.00;;;;;;;;;;5031704;28;20064;-70
2021/12/26 07:22:46;;;;;;;14.07;8.23;;;;;;;;;;5031760;28;20040;-70
2021/12/26 07:25:12;;;;;;;14.57;8.30;;;;;;;;;;5031272;28;20059;-70
2021/12/26 07:27:38;;;;;;;14.35;8.40;;;;;;;;;;5031508;28;20025;-70
2021/12/26 07:30:05;;;;;;;14.02;8.98;;;;;;;;;;5031452;28;20031;-70
2021/12/26 07:32:31;;;;;;;13.13;8.25;;;;;;;;;;5031411;28;20040;-70
2021/12/26 07:34:57;;;;;;;16.63;8.98;;;;;;;;;;5031138;28;20040;-70
2021/12/26 07:37:23;;;;;;;13.70;8.98;;;;;;;;;;5031519;28;20029;-70
2021/12/26 07:39:49;;;;;;;14.15;8.10;;;;;;;;;;5031235;28;20025;-70
2021/12/26 07:42:14;;;;;;;13.05;7.85;;;;;;;;;;5031123;28;20076;-70
2021/12/26 07:44:40;;;;;;;16.23;9.82;;;;;;;;;;5030942;28;20045;-70
2021/12/26 07:47:05;;;;;;;14.45;8.55;;;;;;;;;;5031178;28;20048;-70
2021/12/26 07:49:31;;;;;;;17.13;9.05;;;;;;;;;;5030959;28;20076;-70
2021/12/26 07:51:57;;;;;;;14.38;8.32;;;;;;;;;;5031121;28;20552;-70
2021/12/26 07:54:24;;;;;;;17.23;9.77;;;;;;;;;;5030548;28;20033;-70
2021/12/26 07:56:51;;;;;;;17.10;9.45;;;;;;;;;;5031114;28;20047;-71
2021/12/26 07:59:16;;;;;;;16.85;10.98;;;;;;;;;;5030730;28;20159;-70
2021/12/26 08:01:42;;;;;;;29.38;19.67;;;;;;;;;;5029723;28;20521;-71
2021/12/26 08:04:11;;;;;;;28.65;21.15;;;;;;;;;;5030688;28;20037;-70
2021/12/26 08:06:37;;;;;;;22.02;15.13;;;;;;;;;;5030712;28;20558;-71
2021/12/26 08:09:04;;;;;;;15.70;10.45;;;;;;;;;;5030699;28;20460;-70
2021/12/26 08:11:30;;;;;;;20.38;11.40;;;;;;;;;;5030521;28;20124;-70
2021/12/26 08:13:55;;;;;;;17.60;10.07;;;;;;;;;;5030417;28;20124;-70
2021/12/26 08:16:20;;;;;;;16.95;10.43;;;;;;;;;;5030203;28;20029;-71
2021/12/26 08:18:46;;;;;;;16.67;10.55;;;;;;;;;;5030542;28;20033;-71
2021/12/26 08:21:11;;;;;;;13.30;8.82;;;;;;;;;;5030316;28;20018;-70
2021/12/26 08:23:36;;;;;;;16.85;9.57;;;;;;;;;;5030731;28;20022;-71
2021/12/26 08:26:03;;;;;;;14.85;9.68;;;;;;;;;;5030366;28;20498;-70
2021/12/26 08:28:29;;;;;;;14.48;8.57;;;;;;;;;;5030399;28;20399;-70
2021/12/26 08:30:54;;;;;;;13.57;8.65;;;;;;;;;;5030339;28;20022;-71
2021/12/26 08:33:20;;;;;;;14.07;8.27;;;;;;;;;;5030560;28;20483;-71
2021/12/26 08:35:48;;;;;;;14.80;9.13;;;;;;;;;;5029746;28;20499;-70
2021/12/26 08:38:15;;;;;;;14.30;8.98;;;;;;;;;;5030201;28;20364;-71
2021/12/26 08:40:43;;;;;;;13.75;8.45;;;;;;;;;;5029910;28;20275;-71
2021/12/26 08:43:08;;;;;;;13.07;8.43;;;;;;;;;;5029986;28;20025;-70
2021/12/26 08:45:34;;;;;;;11.45;8.15;;;;;;;;;;5029658;28;20028;-70
2021/12/26 08:48:00;;;;;;;16.25;10.43;;;;;;;;;;5030226;28;20036;-70
2021/12/26 08:50:27;;;;;;;24.75;14.52;;;;;;;;;;5029910;28;20041;-70
2021/12/26 08:52:53;;;;;;;16.90;11.35;;;;;;;;;;5029949;28;20025;-70
2021/12/26 08:55:19;;;;;;;19.52;11.35;;;;;;;;;;5028055;28;20116;-70
2021/12/26 08:57:46;;;;;;;16.88;9.57;;;;;;;;;;5030227;28;20467;-70
2021/12/26 09:00:13;;;;;;;16.30;9.95;;;;;;;;;;5029629;28;20037;-71
2021/12/26 09:02:38;;;;;;;15.35;9.23;;;;;;;;;;5028470;28;20479;-70
2021/12/26 09:05:04;;;;;;;15.73;10.75;;;;;;;;;;5029693;28;20079;-71
2021/12/26 09:07:30;;;;;;;15.23;10.65;;;;;;;;;;5029639;28;20029;-71
2021/12/26 09:09:56;;;;;;;13.43;9.48;;;;;;;;;;5029426;28;20037;-70
2021/12/26 09:12:21;;;;;;;14.43;9.65;;;;;;;;;;5029283;28;20025;-70
2021/12/26 09:14:47;;;;;;;13.70;8.73;;;;;;;;;;5028598;28;20033;-70
2021/12/26 09:17:12;;;;;;;13.70;9.05;;;;;;;;;;5027534;28;20163;-71
2021/12/26 09:19:37;;;;;;;13.05;8.60;;;;;;;;;;5027843;28;20079;-71
2021/12/26 09:22:08;;;;;;;14.52;8.90;;;;;;;;;;5028281;28;20464;-72
2021/12/26 09:24:33;;;;;;;13.82;9.50;;;;;;;;;;5028288;28;20037;-71
2021/12/26 09:26:59;;;;;;;13.73;8.55;;;;;;;;;;5028399;28;20021;-71
2021/12/26 09:29:24;;;;;;;13.23;8.43;;;;;;;;;;5029666;28;20029;-71
2021/12/26 09:31:51;;;;;;;11.43;8.13;;;;;;;;;;5028853;28;20017;-70
2021/12/26 09:34:17;;;;;;;14.32;8.20;;;;;;;;;;5029213;28;20030;-72
2021/12/26 09:36:44;;;;;;;13.23;8.50;;;;;;;;;;5039477;22;20069;-75
2021/12/26 09:39:11;;;;;;;13.60;8.48;;;;;;;;;;5010764;28;20026;-74
2021/12/26 09:41:37;;;;;;;11.88;7.93;;;;;;;;;;5010057;28;20057;-75
2021/12/26 09:44:03;;;;;;;13.60;8.85;;;;;;;;;;5008492;28;20036;-75
2021/12/26 09:46:30;;;;;;;12.07;7.43;;;;;;;;;;5009927;28;20404;-74
2021/12/26 09:48:56;;;;;;;11.00;7.30;;;;;;;;;;5010371;28;20079;-76
2021/12/26 09:51:21;;;;;;;11.80;7.50;;;;;;;;;;5009969;28;20021;-75
2021/12/26 09:53:46;;;;;;;9.98;6.82;;;;;;;;;;5010343;28;20037;-74
2021/12/26 09:56:12;;;;;;;11.60;7.38;;;;;;;;;;5009508;28;20482;-74
2021/12/26 09:58:57;;;;;;;13.90;7.68;;;;;;;;;;5010250;28;20188;-75
2021/12/26 10:01:37;;;;;;;11.07;7.32;;;;;;;;;;5009723;28;20017;-75
2021/12/26 10:04:23;;;;;;;11.00;6.80;;;;;;;;;;5008704;28;20442;-75
2021/12/26 10:06:51;;;;;;;11.80;7.90;;;;;;;;;;5010106;28;20034;-74
2021/12/26 10:09:18;;;;;;;17.35;10.43;;;;;;;;;;5005812;28;20388;-75
2021/12/26 10:11:54;;;;;;;13.57;8.48;;;;;;;;;;5009592;28;20017;-75
2021/12/26 10:14:22;;;;;;;12.23;7.25;;;;;;;;;;5009438;28;20518;-76
2021/12/26 10:16:51;;;;;;;12.68;7.60;;;;;;;;;;5008273;28;20022;-75
2021/12/26 10:19:16;;;;;;;12.18;7.10;;;;;;;;;;5008700;28;20054;-75
2021/12/26 10:21:44;;;;;;;10.60;7.10;;;;;;;;;;5009818;28;20448;-75
2021/12/26 10:24:12;;;;;;;13.23;8.32;;;;;;;;;;5011229;28;20520;-77
2021/12/26 10:26:40;;;;;;;11.70;8.60;;;;;;;;;;5012980;28;20032;-76
2021/12/26 10:29:12;;;;;;;10.43;7.55;;;;;;;;;;5013561;28;20026;-75
2021/12/26 10:31:44;;;;;;;11.50;7.60;;;;;;;;;;5012715;28;20018;-75
2021/12/26 10:34:37;;;;;;;11.35;8.02;;;;;;;;;;5013156;28;20076;-73
2021/12/26 10:37:06;;;;;;;11.35;7.93;;;;;;;;;;5012110;28;20042;-71
2021/12/26 10:39:49;;;;;;;9.40;6.85;;;;;;;;;;5012656;28;20052;-70
2021/12/26 10:42:19;;;;;;;10.20;7.30;;;;;;;;;;5012308;28;20390;-70
2021/12/26 10:44:56;;;;;;;12.15;7.75;;;;;;;;;;5012482;28;20367;-71
2021/12/26 10:47:27;;;;;;;10.85;7.82;;;;;;;;;;5012088;28;20041;-73
2021/12/26 10:49:57;;;;;;;9.88;6.90;;;;;;;;;;5012479;28;20161;-73
2021/12/26 10:52:32;;;;;;;9.90;7.20;;;;;;;;;;5011903;28;20026;-72
2021/12/26 10:55:02;;;;;;;9.23;6.45;;;;;;;;;;5012250;28;20037;-73
2021/12/26 10:57:29;;;;;;;8.82;6.32;;;;;;;;;;5012103;28;20045;-72
2021/12/26 11:00:12;;;;;;;9.65;6.68;;;;;;;;;;5012495;28;20030;-73
2021/12/26 11:02:40;;;;;;;9.23;6.38;;;;;;;;;;5012279;28;20061;-72
2021/12/26 11:05:14;;;;;;;9.18;5.47;;;;;;;;;;5012248;28;20048;-73
2021/12/26 11:07:46;;;;;;;9.85;6.32;;;;;;;;;;5011987;28;20033;-73
2021/12/26 11:10:15;;;;;;;10.20;6.57;;;;;;;;;;5012197;28;20022;-73
2021/12/26 11:12:44;;;;;;;9.65;6.40;;;;;;;;;;5011835;28;20041;-72
2021/12/26 11:15:12;;;;;;;9.32;6.25;;;;;;;;;;5011934;28;20483;-72
2021/12/26 11:17:43;;;;;;;7.88;6.00;;;;;;;;;;5011937;28;20113;-73
2021/12/26 11:20:09;;;;;;;8.10;5.72;;;;;;;;;;5012141;28;20033;-72
2021/12/26 11:22:34;;;;;;;18.17;9.98;;;;;;;;;;5011656;28;20022;-73
2021/12/26 11:25:00;;;;;;;15.38;9.55;;;;;;;;;;5011651;28;20376;-73
2021/12/26 11:27:26;;;;;;;21.05;11.38;;;;;;;;;;5011475;28;20032;-73
2021/12/26 11:29:54;;;;;;;23.60;12.63;;;;;;;;;;5011624;28;20088;-72
2021/12/26 11:32:23;;;;;;;24.00;12.07;;;;;;;;;;5011228;28;20018;-73
2021/12/26 11:34:49;;;;;;;88.03;34.00;;;;;;;;;;5011545;28;20117;-72
2021/12/26 11:37:15;;;;;;;34.83;18.27;;;;;;;;;;5011286;28;20034;-73
2021/12/26 11:39:43;;;;;;;17.65;10.48;;;;;;;;;;5011739;28;20061;-73
2021/12/26 11:42:31;;;;;;;16.98;10.48;;;;;;;;;;5011328;28;20127;-73
2021/12/26 11:45:11;;;;;;;11.43;7.60;;;;;;;;;;5011181;28;20052;-72
2021/12/26 11:48:21;;;;;;;14.88;9.27;;;;;;;;;;5011353;28;20530;-72
2021/12/26 11:51:14;;;;;;;10.57;6.70;;;;;;;;;;5011402;28;20030;-72
2021/12/26 11:53:58;;;;;;;9.82;6.93;;;;;;;;;;5011582;28;20036;-73
2021/12/26 11:56:41;;;;;;;11.20;7.40;;;;;;;;;;5011210;28;20084;-73
2021/12/26 11:59:25;;;;;;;8.20;5.93;;;;;;;;;;5011120;28;20037;-73
2021/12/26 12:01:50;;;;;;;7.57;5.55;;;;;;;;;;5011193;28;20490;-73
2021/12/26 12:04:22;;;;;;;13.43;8.75;;;;;;;;;;5010888;28;20022;-73
2021/12/26 12:06:49;;;;;;;7.90;5.82;;;;;;;;;;5011087;28;20290;-73
2021/12/26 12:09:28;;;;;;;7.75;5.68;;;;;;;;;;5010968;28;20472;-73
2021/12/26 12:12:03;;;;;;;8.55;5.93;;;;;;;;;;5011223;28;20285;-73
2021/12/26 12:14:55;;;;;;;7.80;5.25;;;;;;;;;;5010745;28;20113;-73
2021/12/26 12:17:25;;;;;;;7.45;5.53;;;;;;;;;;5010427;28;20120;-73
2021/12/26 12:20:11;;;;;;;8.15;5.40;;;;;;;;;;5010676;28;20060;-73
2021/12/26 12:22:38;;;;;;;7.30;5.22;;;;;;;;;;5010781;28;20022;-73
2021/12/26 12:25:34;;;;;;;7.35;5.40;;;;;;;;;;4997193;28;20037;-73
2021/12/26 12:28:15;;;;;;;5.82;4.40;;;;;;;;;;4990654;28;20403;-72
2021/12/26 12:30:47;;;;;;;7.35;5.30;;;;;;;;;;4989325;28;20022;-73
2021/12/26 12:33:16;;;;;;;7.35;4.97;;;;;;;;;;4990650;28;20030;-72
2021/12/26 12:35:55;;;;;;;9.45;6.10;;;;;;;;;;4990478;28;20037;-73
2021/12/26 12:38:22;;;;;;;11.50;7.13;;;;;;;;;;4990911;28;20078;-72
2021/12/26 12:40:48;;;;;;;13.63;8.15;;;;;;;;;;4990206;28;20488;-72
2021/12/26 12:43:16;;;;;;;15.48;9.45;;;;;;;;;;4990548;28;20033;-73
2021/12/26 12:45:54;;;;;;;20.45;13.27;;;;;;;;;;4991013;28;20473;-73
2021/12/26 12:48:27;;;;;;;18.00;11.50;;;;;;;;;;4993596;28;20022;-72
2021/12/26 12:50:55;;;;;;;20.92;13.10;;;;;;;;;;4998761;28;20091;-72
2021/12/26 12:53:42;;;;;;;17.48;10.88;;;;;;;;;;4997150;28;20034;-73
2021/12/26 12:56:09;;;;;;;19.63;12.13;;;;;;;;;;5028197;28;20403;-73
2021/12/26 12:58:36;;;;;;;18.80;12.30;;;;;;;;;;5026212;28;20087;-73
2021/12/26 13:01:05;;;;;;;17.00;10.05;;;;;;;;;;5028996;28;20044;-73
2021/12/26 13:03:33;;;;;;;19.63;10.80;;;;;;;;;;5029104;28;20489;-73
2021/12/26 13:06:06;;;;;;;16.65;10.55;;;;;;;;;;5029258;28;20033;-73
2021/12/26 13:08:33;;;;;;;16.83;9.27;;;;;;;;;;5029304;28;20063;-73
2021/12/26 13:10:59;;;;;;;15.93;9.55;;;;;;;;;;5028925;28;20032;-73
2021/12/26 13:13:24;;;;;;;16.85;9.90;;;;;;;;;;5030654;28;20025;-73
2021/12/26 13:16:01;;;;;;;16.35;9.75;;;;;;;;;;5034202;28;20075;-72
2021/12/26 13:18:29;;;;;;;16.55;9.75;;;;;;;;;;5029140;28;20125;-73
2021/12/26 13:21:01;;;;;;;8.32;6.10;;;;;;;;;;5029118;28;20040;-73
2021/12/26 13:23:29;;;;;;;14.73;8.40;;;;;;;;;;5030702;28;20036;-73
2021/12/26 13:25:56;;;;;;;14.15;7.88;;;;;;;;;;5029062;28;20498;-73
2021/12/26 13:28:26;;;;;;;9.05;7.03;;;;;;;;;;5028837;28;20549;-73
2021/12/26 13:30:59;;;;;;;7.13;5.00;;;;;;;;;;5028764;28;20021;-73
2021/12/26 13:33:31;;;;;;;10.13;6.25;;;;;;;;;;5028513;28;20083;-73
2021/12/26 13:35:57;;;;;;;13.27;7.95;;;;;;;;;;5026938;28;20399;-73
2021/12/26 13:38:23;;;;;;;13.15;9.13;;;;;;;;;;5028505;28;20087;-73
2021/12/26 13:40:54;;;;;;;15.15;11.05;;;;;;;;;;5029202;28;20136;-73
2021/12/26 13:43:32;;;;;;;19.02;14.52;;;;;;;;;;5028294;28;20029;-73
2021/12/26 13:45:59;;;;;;;10.20;7.45;;;;;;;;;;5021392;28;20073;-73
2021/12/26 13:48:27;;;;;;;8.00;6.32;;;;;;;;;;4997076;28;20472;-73
2021/12/26 13:50:52;;;;;;;11.40;9.13;;;;;;;;;;5006338;28;20395;-73
2021/12/26 13:53:17;;;;;;;5.78;4.90;;;;;;;;;;5008561;28;20037;-73
2021/12/26 13:55:43;;;;;;;6.50;4.72;;;;;;;;;;5007772;28;20057;-74
2021/12/26 13:58:14;;;;;;;6.75;5.00;;;;;;;;;;5010140;28;20025;-73
2021/12/26 14:00:47;;;;;;;8.25;6.30;;;;;;;;;;5012276;28;20026;-73
2021/12/26 14:03:13;;;;;;;6.18;4.68;;;;;;;;;;5012824;28;20483;-73
2021/12/26 14:05:38;;;;;;;9.50;7.78;;;;;;;;;;5011587;28;20022;-73
2021/12/26 14:08:13;;;;;;;10.00;7.60;;;;;;;;;;5011958;28;20036;-73
2021/12/26 14:10:38;;;;;;;9.02;6.70;;;;;;;;;;5012557;28;20083;-73
2021/12/26 14:13:05;;;;;;;9.07;6.85;;;;;;;;;;5012375;28;20108;-73
2021/12/26 14:15:35;;;;;;;9.65;6.32;;;;;;;;;;5011595;28;20022;-73
2021/12/26 14:18:09;;;;;;;6.75;5.07;;;;;;;;;;5012098;28;20036;-73
2021/12/26 14:21:05;;;;;;;7.28;5.75;;;;;;;;;;5012001;28;20029;-73
2021/12/26 14:23:40;;;;;;;7.75;5.70;;;;;;;;;;5012262;28;20017;-73
2021/12/26 14:26:16;;;;;;;7.22;5.40;;;;;;;;;;5011726;28;20049;-73
2021/12/26 14:28:43;;;;;;;8.32;6.00;;;;;;;;;;5012131;28;20104;-73
2021/12/26 14:31:25;;;;;;;8.98;5.72;;;;;;;;;;5011015;28;20109;-73
2021/12/26 14:33:50;;;;;;;8.45;5.57;;;;;;;;;;5011919;28;20040;-73
2021/12/26 14:36:17;;;;;;;7.75;5.30;;;;;;;;;;5011436;28;20022;-73
2021/12/26 14:38:55;;;;;;;6.80;5.55;;;;;;;;;;5011940;28;20030;-73
2021/12/26 14:41:20;;;;;;;7.63;6.05;;;;;;;;;;5011664;28;20033;-73
2021/12/26 14:43:46;;;;;;;8.68;6.28;;;;;;;;;;5011614;28;20041;-73